createdAt,value
2022-08-14T00:04:02.104Z,8.30
2022-08-14T00:09:28.099Z,7.50
2022-08-14T00:19:44.415Z,7.50
2022-08-14T00:24:52.336Z,7.10
2022-08-14T00:29:58.323Z,7.70
2022-08-14T00:35:06.679Z,7.30
2022-08-14T00:40:33.573Z,7.20
2022-08-14T00:45:42.057Z,6.20
2022-08-14T00:50:48.464Z,7.10
2022-08-14T00:55:56.597Z,7.20
2022-08-14T01:01:08.153Z,6.60
2022-08-14T01:06:18.471Z,6.40
2022-08-14T01:11:25.413Z,6.30
2022-08-14T01:16:38.029Z,6.30
2022-08-14T01:21:47.342Z,6.60
2022-08-14T01:27:00.737Z,5.90
2022-08-14T01:32:10.579Z,5.40
2022-08-14T01:37:16.586Z,6.40
2022-08-14T01:42:31.840Z,6.50
2022-08-14T01:47:42.022Z,6.00
2022-08-14T01:52:59.174Z,5.80
2022-08-14T01:58:19.427Z,5.50
2022-08-14T02:03:30.861Z,5.70
2022-08-14T02:08:38.216Z,5.80
2022-08-14T02:14:07.054Z,5.40
2022-08-14T02:19:16.546Z,5.10
2022-08-14T02:24:39.725Z,5.40
2022-08-14T02:29:59.560Z,5.10
2022-08-14T02:35:13.723Z,4.90
2022-08-14T02:40:32.452Z,5.00
2022-08-14T02:45:44.341Z,5.00
2022-08-14T02:50:51.630Z,5.60
2022-08-14T02:56:03.235Z,5.40
2022-08-14T03:01:18.337Z,5.30
2022-08-14T03:06:48.887Z,5.00
2022-08-14T03:11:52.253Z,5.30
2022-08-14T03:16:59.511Z,4.70
2022-08-14T03:22:09.379Z,4.20
2022-08-14T03:27:26.588Z,4.90
2022-08-14T03:32:43.764Z,5.10
2022-08-14T03:39:16.158Z,4.60
2022-08-14T03:43:18.771Z,4.10
2022-08-14T03:48:30.077Z,4.30
2022-08-14T03:53:38.512Z,4.90
2022-08-14T03:58:46.269Z,6.10
2022-08-14T04:03:57.714Z,4.70
2022-08-14T04:09:04.345Z,4.30
2022-08-14T04:14:15.184Z,4.30
2022-08-14T04:19:24.036Z,4.60
2022-08-14T04:24:30.819Z,4.50
2022-08-14T04:29:45.346Z,4.60
2022-08-14T04:34:52.188Z,4.20
2022-08-14T04:40:17.510Z,4.40
2022-08-14T04:45:24.985Z,4.50
2022-08-14T04:50:43.475Z,4.20
2022-08-14T04:55:51.997Z,4.30
2022-08-14T05:00:59.891Z,4.70
2022-08-14T05:06:07.808Z,4.80
2022-08-14T05:11:36.734Z,5.40
2022-08-14T05:16:46.607Z,5.40
2022-08-14T05:22:15.952Z,5.60
2022-08-14T05:27:24.118Z,4.40
2022-08-14T05:32:30.234Z,4.80
2022-08-14T05:37:36.070Z,3.90
2022-08-14T05:42:41.973Z,4.50
2022-08-14T05:47:52.742Z,4.30
2022-08-14T05:52:59.625Z,4.00
2022-08-14T05:58:08.409Z,4.70
2022-08-14T06:03:16.832Z,4.80
2022-08-14T06:08:41.329Z,5.90
2022-08-14T06:13:47.983Z,5.80
2022-08-14T06:18:54.812Z,6.30
2022-08-14T06:24:10.599Z,6.70
2022-08-14T06:29:25.197Z,6.90
2022-08-14T06:35:03.922Z,6.50
2022-08-14T06:39:57.298Z,6.60
2022-08-14T06:45:04.078Z,7.50
2022-08-14T06:50:14.388Z,7.80
2022-08-14T06:55:25.934Z,7.70
2022-08-14T07:00:34.476Z,7.90
2022-08-14T07:05:55.886Z,8.10
2022-08-14T07:11:04.666Z,8.30
2022-08-14T07:16:13.106Z,7.90
2022-08-14T07:21:20.021Z,6.70
2022-08-14T07:26:25.868Z,5.90
2022-08-14T07:31:35.999Z,6.50
2022-08-14T07:36:53.745Z,5.80
2022-08-14T07:42:04.782Z,5.20
2022-08-14T07:47:10.927Z,5.60
2022-08-14T07:52:22.025Z,5.20
2022-08-14T07:57:28.561Z,5.00
2022-08-14T08:02:35.401Z,4.90
2022-08-14T08:07:48.094Z,5.00
2022-08-14T08:12:56.997Z,4.90
2022-08-14T08:18:04.944Z,4.70
2022-08-14T08:23:12.337Z,4.70
2022-08-14T08:28:28.109Z,4.20
2022-08-14T08:33:37.232Z,4.80
2022-08-14T08:39:18.620Z,5.40
2022-08-14T08:44:31.173Z,5.50
2022-08-14T08:49:48.722Z,6.00
2022-08-14T08:55:06.567Z,6.00
2022-08-14T09:00:25.477Z,6.50
2022-08-14T09:05:34.354Z,6.40
2022-08-14T09:10:40.210Z,6.70
2022-08-14T09:15:49.850Z,6.80
2022-08-14T09:20:58.572Z,5.80
2022-08-14T09:26:05.157Z,6.30
2022-08-14T09:31:43.090Z,5.60
2022-08-14T09:37:17.265Z,5.80
2022-08-14T09:42:50.207Z,6.10
2022-08-14T09:47:58.492Z,6.00
2022-08-14T09:53:10.486Z,6.20
2022-08-14T09:58:24.672Z,6.40
2022-08-14T10:03:36.311Z,6.80
2022-08-14T10:08:50.906Z,5.90
2022-08-14T10:14:02.466Z,5.90
2022-08-14T10:19:10.746Z,5.90
2022-08-14T10:24:36.435Z,6.30
2022-08-14T10:29:47.690Z,5.80
2022-08-14T10:35:04.023Z,6.50
2022-08-14T10:40:37.789Z,6.00
2022-08-14T10:45:46.370Z,6.10
2022-08-14T10:50:59.804Z,6.60
2022-08-14T10:56:22.025Z,6.20
2022-08-14T11:01:43.141Z,5.90
2022-08-14T11:06:56.717Z,6.00
2022-08-14T11:12:34.865Z,5.60
2022-08-14T11:17:31.752Z,5.70
2022-08-14T11:23:02.913Z,6.70
2022-08-14T11:28:11.075Z,6.50
2022-08-14T11:33:25.467Z,7.40
2022-08-14T11:38:38.133Z,7.10
2022-08-14T11:43:58.243Z,7.20
2022-08-14T11:49:06.674Z,7.30
2022-08-14T11:54:15.455Z,7.40
2022-08-14T11:59:30.934Z,7.70
2022-08-14T12:04:50.776Z,7.80
2022-08-14T12:09:58.704Z,7.90
2022-08-14T12:15:07.131Z,7.70
2022-08-14T12:20:14.961Z,7.80
2022-08-14T12:25:45.202Z,7.90
2022-08-14T12:31:20.473Z,8.90
2022-08-14T12:36:31.078Z,8.30
2022-08-14T12:41:38.258Z,8.80
2022-08-14T12:46:46.856Z,9.10
2022-08-14T12:52:00.053Z,8.00
2022-08-14T12:57:08.459Z,7.50
2022-08-14T13:02:25.991Z,9.40
2022-08-14T13:07:33.297Z,9.00
2022-08-14T13:12:56.797Z,8.10
2022-08-14T13:18:08.479Z,8.00
2022-08-14T13:23:14.878Z,8.10
2022-08-14T13:28:33.140Z,7.20
2022-08-14T13:33:41.357Z,8.00
2022-08-14T13:38:50.183Z,7.90
2022-08-14T13:44:00.026Z,7.70
2022-08-14T13:49:12.036Z,7.60
2022-08-14T13:54:23.150Z,7.10
2022-08-14T13:59:37.784Z,7.50
2022-08-14T14:04:49.510Z,8.40
2022-08-14T14:09:58.608Z,7.90
2022-08-14T14:15:07.064Z,7.70
2022-08-14T14:20:35.755Z,9.20
2022-08-14T14:25:51.454Z,8.60
2022-08-14T14:31:06.128Z,10.70
2022-08-14T14:36:20.936Z,9.00
2022-08-14T14:41:37.363Z,7.90
2022-08-14T14:46:51.016Z,8.80
2022-08-14T14:51:59.066Z,8.70
2022-08-14T14:57:09.394Z,8.60
2022-08-14T15:02:33.331Z,8.30
2022-08-14T15:07:40.235Z,9.30
2022-08-14T15:12:57.924Z,9.10
2022-08-14T15:18:36.571Z,9.90
2022-08-14T15:23:44.348Z,10.30
2022-08-14T15:29:03.088Z,10.40
2022-08-14T15:34:45.551Z,10.00
2022-08-14T15:39:38.400Z,10.30
2022-08-14T15:44:58.498Z,9.90
2022-08-14T15:50:09.569Z,9.80
2022-08-14T15:55:16.721Z,10.10
2022-08-14T16:00:44.135Z,10.50
2022-08-14T16:05:55.750Z,10.70
2022-08-14T16:11:05.137Z,10.40
2022-08-14T16:16:49.604Z,10.20
2022-08-14T16:22:02.213Z,9.80
2022-08-14T16:27:11.050Z,9.20
2022-08-14T16:32:35.745Z,9.60
2022-08-14T16:37:43.774Z,9.70
2022-08-14T16:43:04.146Z,9.60
2022-08-14T16:48:57.107Z,9.80
2022-08-14T16:53:44.682Z,11.10
2022-08-14T16:59:09.499Z,10.80
2022-08-14T17:04:24.670Z,10.20
2022-08-14T17:09:35.460Z,10.10
2022-08-14T17:14:54.539Z,10.30
2022-08-14T17:20:33.889Z,11.30
2022-08-14T17:25:36.395Z,10.00
2022-08-14T17:30:54.487Z,10.70
2022-08-14T17:36:20.867Z,11.00
2022-08-14T17:41:36.050Z,11.80
2022-08-14T17:46:50.357Z,11.20
2022-08-14T17:52:16.977Z,11.50
2022-08-14T17:57:28.458Z,11.80
2022-08-14T18:02:35.375Z,11.70
2022-08-14T18:07:59.571Z,11.60
2022-08-14T18:13:08.027Z,7.00
2022-08-14T18:18:16.701Z,4.20
2022-08-14T18:23:23.030Z,4.40
2022-08-14T18:28:51.257Z,7.10
2022-08-14T18:34:06.171Z,7.40
2022-08-14T18:39:28.288Z,7.40
2022-08-14T18:45:15.447Z,7.40
2022-08-14T18:50:27.948Z,7.90
2022-08-14T18:56:02.127Z,8.40
2022-08-14T19:01:24.549Z,9.20
2022-08-14T19:06:44.698Z,8.90
2022-08-14T19:11:51.544Z,9.10
2022-08-14T19:16:58.182Z,9.10
2022-08-14T19:22:12.338Z,8.80
2022-08-14T19:27:23.510Z,9.20
2022-08-14T19:32:40.313Z,9.50
2022-08-14T19:37:52.503Z,9.70
2022-08-14T19:43:00.806Z,9.70
2022-08-14T19:48:13.283Z,9.50
2022-08-14T19:53:20.188Z,9.60
2022-08-14T19:58:55.137Z,10.10
2022-08-14T20:04:06.650Z,10.10
2022-08-14T20:11:08.565Z,10.10
2022-08-14T20:14:39.714Z,9.20
2022-08-14T20:19:58.088Z,9.30
2022-08-14T20:25:18.358Z,10.50
2022-08-14T20:30:34.019Z,10.20
2022-08-14T20:35:51.599Z,10.50
2022-08-14T20:41:00.007Z,9.80
2022-08-14T20:46:14.809Z,9.40
2022-08-14T20:51:26.352Z,9.20
2022-08-14T20:56:44.630Z,8.70
2022-08-14T21:01:55.366Z,8.90
2022-08-14T21:07:24.812Z,9.00
2022-08-14T21:12:34.960Z,9.40
2022-08-14T21:17:43.136Z,9.30
2022-08-14T21:22:49.511Z,10.60
2022-08-14T21:27:57.482Z,10.10
2022-08-14T21:33:05.326Z,10.90
2022-08-14T21:38:17.982Z,15.00
2022-08-14T21:43:26.999Z,17.30
2022-08-14T21:48:36.535Z,16.10
2022-08-14T21:53:54.125Z,14.90
2022-08-14T21:59:09.079Z,13.80
2022-08-14T22:04:33.201Z,13.00
2022-08-14T22:09:42.752Z,11.70
2022-08-14T22:14:49.128Z,11.40
2022-08-14T22:19:57.049Z,11.10
2022-08-14T22:25:03.887Z,10.00
2022-08-14T22:30:15.264Z,10.10
2022-08-14T22:35:25.133Z,10.60
2022-08-14T22:41:01.920Z,10.90
2022-08-14T22:45:57.810Z,10.80
2022-08-14T22:51:08.464Z,9.50
2022-08-14T22:56:21.858Z,10.10
2022-08-14T23:01:57.274Z,10.60
2022-08-14T23:07:04.707Z,11.70
2022-08-14T23:12:27.910Z,11.10
2022-08-14T23:17:40.347Z,11.70
2022-08-14T23:22:47.993Z,10.60
2022-08-14T23:28:03.186Z,9.70
2022-08-14T23:33:16.372Z,10.00
2022-08-14T23:38:30.494Z,10.40
2022-08-14T23:43:39.065Z,9.80
2022-08-14T23:48:46.635Z,10.00
2022-08-14T23:53:53.383Z,10.20
2022-08-14T23:59:01.113Z,10.40
